Time;durP1;ratioP1;P1;durP2;ratioP2;P2;SDS_P1;SDS_P2;PMS_P1;PMS_P2;Temp;Humidity;BMP_temperature;BMP_pressure;BME280_temperature;BME280_humidity;BME280_pressure;Samples;Min_cycle;Max_cycle;Signal;HPM_P1;HPM_P2
2023/06/19 00:01:10;;;;;;;14.20;9.63;;;14.60;99.90;;;;;;5092253;28;20055;-69
2023/06/19 00:03:36;;;;;;;10.75;8.63;;;14.60;99.90;;;;;;5093885;28;20073;-69
2023/06/19 00:06:02;;;;;;;16.05;9.63;;;14.50;99.90;;;;;;5093866;28;20032;-69
2023/06/19 00:08:27;;;;;;;13.43;9.20;;;14.50;99.90;;;;;;5093806;28;20032;-68
2023/06/19 00:10:54;;;;;;;14.15;9.18;;;14.40;99.90;;;;;;5092395;28;20529;-69
2023/06/19 00:13:19;;;;;;;15.75;9.32;;;14.40;99.90;;;;;;5093919;28;20028;-69
2023/06/19 00:15:45;;;;;;;13.68;8.40;;;14.40;99.90;;;;;;5092862;28;20073;-69
2023/06/19 00:18:11;;;;;;;11.30;8.93;;;14.40;99.90;;;;;;5093733;28;20353;-69
2023/06/19 00:20:36;;;;;;;11.65;9.18;;;14.30;99.90;;;;;;5092423;28;20112;-69
2023/06/19 00:23:02;;;;;;;10.25;8.80;;;14.30;99.90;;;;;;5092407;28;20038;-69
2023/06/19 00:25:28;;;;;;;10.85;8.98;;;14.30;99.90;;;;;;5093623;28;20536;-69
2023/06/19 00:27:53;;;;;;;11.73;9.75;;;14.30;99.90;;;;;;5093729;28;20353;-68
2023/06/19 00:30:19;;;;;;;11.45;8.70;;;14.20;99.90;;;;;;5093222;28;20028;-69
2023/06/19 00:32:47;;;;;;;11.85;8.90;;;14.20;99.90;;;;;;5092400;28;20035;-69
2023/06/19 00:35:14;;;;;;;10.75;9.13;;;14.20;99.90;;;;;;5092687;28;20103;-68
2023/06/19 00:37:44;;;;;;;11.55;9.00;;;14.10;99.90;;;;;;5093684;28;20535;-68
2023/06/19 00:40:26;;;;;;;10.45;8.48;;;14.10;99.90;;;;;;5092237;28;20050;-68
2023/06/19 00:42:52;;;;;;;9.43;8.40;;;14.10;99.90;;;;;;5092604;28;20027;-69
2023/06/19 00:45:17;;;;;;;14.40;9.15;;;14.10;99.90;;;;;;5093521;28;20024;-69
2023/06/19 00:47:43;;;;;;;10.57;8.90;;;14.10;99.90;;;;;;5093471;28;20108;-69
2023/06/19 00:50:09;;;;;;;11.75;9.05;;;14.10;99.90;;;;;;5080807;28;20384;-69
2023/06/19 00:52:35;;;;;;;12.38;9.10;;;14.00;99.90;;;;;;5058974;28;20040;-69
2023/06/19 00:55:01;;;;;;;12.85;8.55;;;14.00;99.90;;;;;;5059005;28;20021;-69
2023/06/19 00:57:27;;;;;;;13.27;8.82;;;14.00;99.90;;;;;;5076906;28;20024;-69
2023/06/19 00:59:53;;;;;;;12.10;8.85;;;14.00;99.90;;;;;;5076907;28;20169;-68
2023/06/19 01:02:23;;;;;;;13.18;8.95;;;13.90;99.90;;;;;;5076771;28;20036;-69
2023/06/19 01:04:52;;;;;;;13.93;9.77;;;13.90;99.90;;;;;;5058822;28;20163;-68
2023/06/19 01:07:27;;;;;;;11.43;9.43;;;13.90;99.90;;;;;;5076931;28;20016;-69
2023/06/19 01:09:59;;;;;;;10.18;9.10;;;13.90;99.90;;;;;;5076758;28;20029;-69
2023/06/19 01:12:33;;;;;;;11.07;9.20;;;13.80;99.90;;;;;;5058971;28;20048;-69
2023/06/19 01:15:02;;;;;;;11.40;9.30;;;13.80;99.90;;;;;;5058603;28;20119;-68
2023/06/19 01:17:29;;;;;;;11.52;9.57;;;13.80;99.90;;;;;;5076682;28;20024;-69
2023/06/19 01:19:56;;;;;;;14.00;9.35;;;13.80;99.90;;;;;;5076194;28;20040;-69
2023/06/19 01:22:31;;;;;;;13.55;9.90;;;13.70;99.90;;;;;;5076463;28;20025;-68
2023/06/19 01:24:57;;;;;;;10.98;9.43;;;13.70;99.90;;;;;;5058972;28;20052;-69
2023/06/19 01:27:31;;;;;;;13.23;10.48;;;13.70;99.90;;;;;;5058429;28;20070;-68
2023/06/19 01:29:59;;;;;;;11.20;8.60;;;13.70;99.90;;;;;;5076470;28;20070;-69
2023/06/19 01:32:44;;;;;;;13.00;10.43;;;13.70;99.90;;;;;;5058286;28;20025;-69
2023/06/19 01:35:12;;;;;;;11.23;9.52;;;13.60;99.90;;;;;;5076580;28;20021;-68
2023/06/19 01:37:41;;;;;;;11.38;9.10;;;13.60;99.90;;;;;;5076177;28;20105;-69
2023/06/19 01:40:09;;;;;;;12.57;10.05;;;13.60;99.90;;;;;;5076153;28;20036;-69
2023/06/19 01:42:37;;;;;;;12.05;10.27;;;13.50;99.90;;;;;;5076068;28;20029;-69
2023/06/19 01:45:04;;;;;;;14.30;10.68;;;13.50;99.90;;;;;;5057854;28;20048;-68
2023/06/19 01:47:30;;;;;;;12.55;9.82;;;13.50;99.90;;;;;;5058037;28;20082;-69
2023/06/19 01:49:55;;;;;;;13.50;10.40;;;13.50;99.90;;;;;;5075885;28;20052;-69
2023/06/19 01:52:21;;;;;;;11.95;9.73;;;13.40;99.90;;;;;;5076009;28;20032;-69
2023/06/19 01:54:47;;;;;;;10.00;8.98;;;13.40;99.90;;;;;;5075832;28;20406;-69
2023/06/19 01:57:12;;;;;;;11.15;9.10;;;13.40;99.90;;;;;;5075995;28;20103;-69
2023/06/19 01:59:38;;;;;;;12.43;9.68;;;13.40;99.90;;;;;;5057323;28;20024;-69
2023/06/19 02:02:06;;;;;;;13.25;10.30;;;13.40;99.90;;;;;;5075996;28;20029;-69
2023/06/19 02:04:32;;;;;;;10.98;9.60;;;13.40;99.90;;;;;;5057677;28;20497;-69
2023/06/19 02:06:57;;;;;;;16.65;9.63;;;13.40;99.90;;;;;;5075322;28;20099;-69
2023/06/19 02:09:23;;;;;;;12.55;9.88;;;13.30;99.90;;;;;;5057309;28;20063;-69
2023/06/19 02:11:49;;;;;;;11.80;9.45;;;13.30;99.90;;;;;;5057506;28;20165;-68
2023/06/19 02:14:14;;;;;;;14.65;10.00;;;13.30;99.90;;;;;;5075486;28;20093;-69
2023/06/19 02:16:43;;;;;;;12.93;10.15;;;13.30;99.90;;;;;;5057508;28;20105;-69
2023/06/19 02:19:10;;;;;;;11.70;9.45;;;13.30;99.90;;;;;;5075367;28;20025;-68
2023/06/19 02:21:36;;;;;;;10.40;9.10;;;13.30;99.90;;;;;;5075345;28;20118;-68
2023/06/19 02:24:02;;;;;;;13.07;9.18;;;13.20;99.90;;;;;;5075262;28;20029;-68
2023/06/19 02:26:29;;;;;;;12.73;9.52;;;13.20;99.90;;;;;;5057244;28;20028;-69
2023/06/19 02:28:55;;;;;;;12.35;10.30;;;13.20;99.90;;;;;;5075384;28;20029;-69
2023/06/19 02:31:22;;;;;;;11.55;9.45;;;13.20;99.90;;;;;;5075432;28;20074;-69
2023/06/19 02:33:48;;;;;;;11.52;9.85;;;13.20;99.90;;;;;;5057530;28;20046;-68
2023/06/19 02:36:13;;;;;;;15.88;10.23;;;13.20;99.90;;;;;;5075010;28;20388;-69
2023/06/19 02:38:39;;;;;;;12.93;10.05;;;13.20;99.90;;;;;;5074999;28;20423;-69
2023/06/19 02:41:04;;;;;;;11.32;9.55;;;13.20;99.90;;;;;;5075058;28;20464;-69
2023/06/19 02:43:30;;;;;;;11.18;10.00;;;13.10;99.90;;;;;;5057454;28;20025;-69
2023/06/19 02:45:56;;;;;;;13.68;10.18;;;13.10;99.90;;;;;;5056888;28;20032;-69
2023/06/19 02:48:23;;;;;;;11.82;9.52;;;13.10;99.90;;;;;;5074720;28;20484;-69
2023/06/19 02:50:48;;;;;;;15.00;9.85;;;13.00;99.90;;;;;;5074952;28;20086;-69
2023/06/19 02:53:16;;;;;;;12.98;9.80;;;13.00;99.90;;;;;;5074696;28;20102;-69
2023/06/19 02:55:42;;;;;;;11.57;9.80;;;13.00;99.90;;;;;;5074661;28;20016;-68
2023/06/19 02:58:07;;;;;;;10.18;8.68;;;13.00;99.90;;;;;;5074578;28;20027;-69
2023/06/19 03:00:33;;;;;;;13.85;9.98;;;12.90;99.90;;;;;;5074599;28;20035;-69
2023/06/19 03:02:59;;;;;;;12.07;9.35;;;12.90;99.90;;;;;;5074527;28;20415;-68
2023/06/19 03:05:26;;;;;;;14.70;10.65;;;12.90;99.90;;;;;;5074374;28;20032;-69
2023/06/19 03:07:52;;;;;;;11.93;10.02;;;;;;;;;;5056366;28;20074;-69
2023/06/19 03:10:18;;;;;;;11.80;9.93;;;12.90;99.90;;;;;;5056346;28;20029;-69
2023/06/19 03:12:44;;;;;;;13.20;9.52;;;12.90;99.90;;;;;;5073515;28;20024;-69
2023/06/19 03:15:10;;;;;;;11.73;10.48;;;12.90;99.90;;;;;;5056321;28;20029;-69
2023/06/19 03:17:35;;;;;;;12.30;10.10;;;12.90;99.90;;;;;;5074409;28;20021;-69
2023/06/19 03:20:01;;;;;;;13.25;9.82;;;12.90;99.90;;;;;;5074435;28;20357;-69
2023/06/19 03:22:27;;;;;;;12.13;9.65;;;12.90;99.90;;;;;;5074152;28;20103;-69
2023/06/19 03:24:52;;;;;;;11.60;10.07;;;12.90;99.90;;;;;;5073784;28;20039;-69
2023/06/19 03:27:18;;;;;;;13.70;9.20;;;12.90;99.90;;;;;;5074293;28;20020;-69
2023/06/19 03:29:44;;;;;;;13.70;10.30;;;12.90;99.90;;;;;;5073991;28;20024;-68
2023/06/19 03:32:09;;;;;;;12.45;10.10;;;13.00;99.90;;;;;;5056146;28;20025;-68
2023/06/19 03:34:35;;;;;;;12.68;10.23;;;13.00;99.90;;;;;;5073988;28;20464;-68
2023/06/19 03:37:01;;;;;;;13.63;10.38;;;13.00;99.90;;;;;;5074051;28;20028;-69
2023/06/19 03:39:26;;;;;;;21.30;10.85;;;13.10;99.90;;;;;;5055968;28;20028;-68
2023/06/19 03:41:52;;;;;;;15.60;10.15;;;13.10;99.90;;;;;;5055928;28;20036;-69
2023/06/19 03:44:17;;;;;;;11.23;9.65;;;13.10;99.90;;;;;;5055860;28;20116;-69
2023/06/19 03:46:43;;;;;;;12.93;10.23;;;13.10;99.90;;;;;;5073548;28;20112;-69
2023/06/19 03:49:09;;;;;;;12.35;10.10;;;13.20;99.90;;;;;;5073700;28;20392;-69
2023/06/19 03:51:35;;;;;;;11.48;9.55;;;13.20;99.90;;;;;;5073668;28;20078;-69
2023/06/19 03:54:01;;;;;;;12.77;9.05;;;13.30;99.90;;;;;;5055769;28;20036;-69
2023/06/19 03:56:26;;;;;;;10.38;9.07;;;13.30;99.90;;;;;;5073759;28;20133;-68
2023/06/19 03:58:52;;;;;;;14.95;9.40;;;13.30;99.90;;;;;;5073911;28;20035;-69
2023/06/19 04:01:18;;;;;;;15.45;9.68;;;13.40;99.90;;;;;;5073865;28;20461;-68
2023/06/19 04:03:43;;;;;;;12.00;8.95;;;13.50;99.90;;;;;;5073940;28;20032;-69
2023/06/19 04:06:09;;;;;;;12.10;9.40;;;13.60;99.90;;;;;;5073569;28;20027;-71
2023/06/19 04:08:34;;;;;;;11.27;9.05;;;13.60;99.90;;;;;;5073576;28;20028;-73
2023/06/19 04:11:00;;;;;;;13.60;8.80;;;13.70;99.90;;;;;;5073521;28;20111;-74
2023/06/19 04:13:26;;;;;;;9.57;8.57;;;13.80;99.90;;;;;;5073314;28;20033;-73
2023/06/19 04:15:52;;;;;;;13.73;9.27;;;13.80;99.90;;;;;;5055527;28;20460;-69
2023/06/19 04:18:17;;;;;;;10.98;9.07;;;13.90;99.90;;;;;;5055461;28;20035;-75
2023/06/19 04:20:43;;;;;;;12.90;9.63;;;14.00;99.90;;;;;;5073686;28;20028;-73
2023/06/19 04:23:09;;;;;;;15.05;9.57;;;14.00;99.90;;;;;;5075024;28;20017;-74
2023/06/19 04:25:35;;;;;;;15.15;9.32;;;14.10;99.90;;;;;;5077191;28;20166;-74
2023/06/19 04:28:03;;;;;;;11.35;9.13;;;14.20;99.90;;;;;;5077514;28;20039;-74
2023/06/19 04:30:30;;;;;;;14.15;9.20;;;14.20;99.90;;;;;;5059382;28;20070;-74
2023/06/19 04:32:59;;;;;;;12.75;9.20;;;14.30;99.90;;;;;;5077667;28;20036;-73
2023/06/19 04:35:25;;;;;;;12.48;9.43;;;14.40;99.90;;;;;;5077108;28;20496;-74
2023/06/19 04:37:50;;;;;;;10.35;7.63;;;14.50;99.90;;;;;;5059310;28;20029;-73
2023/06/19 04:40:16;;;;;;;12.68;8.88;;;14.50;99.90;;;;;;5059227;28;20032;-73
2023/06/19 04:42:42;;;;;;;11.68;8.00;;;14.60;99.90;;;;;;5077190;28;20047;-73
2023/06/19 04:45:09;;;;;;;12.20;8.23;;;14.60;99.90;;;;;;5077098;28;20028;-81
2023/06/19 04:47:35;;;;;;;10.35;8.30;;;14.70;99.90;;;;;;5059268;28;20450;-74
2023/06/19 04:50:00;;;;;;;15.75;8.70;;;14.80;99.90;;;;;;5076492;28;20044;-74
2023/06/19 04:52:26;;;;;;;14.85;8.98;;;14.90;99.90;;;;;;5058865;28;20081;-74
2023/06/19 04:54:51;;;;;;;13.20;8.88;;;14.90;99.90;;;;;;5076954;28;20452;-74
2023/06/19 04:57:17;;;;;;;12.30;8.10;;;15.10;99.90;;;;;;5076702;28;20047;-74
2023/06/19 04:59:46;;;;;;;11.32;8.52;;;15.20;99.90;;;;;;5058493;28;20472;-74
2023/06/19 05:02:12;;;;;;;10.07;8.15;;;15.20;99.90;;;;;;5058747;28;20487;-74
2023/06/19 05:04:37;;;;;;;11.82;8.85;;;15.30;99.90;;;;;;5058662;28;20032;-74
2023/06/19 05:07:03;;;;;;;10.43;7.97;;;15.50;99.90;;;;;;5076578;28;20052;-74
2023/06/19 05:09:29;;;;;;;11.93;7.97;;;15.50;99.90;;;;;;5059034;28;20063;-74
2023/06/19 05:11:57;;;;;;;11.65;7.97;;;15.60;99.90;;;;;;5076125;28;20028;-74
2023/06/19 05:14:23;;;;;;;13.65;7.63;;;15.70;99.90;;;;;;5058387;28;20128;-74
2023/06/19 05:16:49;;;;;;;10.82;7.45;;;15.80;99.90;;;;;;5076077;28;20487;-74
2023/06/19 05:19:14;;;;;;;12.48;8.02;;;16.00;99.90;;;;;;5076377;28;20028;-74
2023/06/19 05:21:40;;;;;;;9.00;7.93;;;16.10;99.90;;;;;;5076062;28;20032;-74
2023/06/19 05:24:06;;;;;;;11.05;7.82;;;16.20;99.90;;;;;;5076624;28;20021;-74
2023/06/19 05:26:31;;;;;;;10.73;7.57;;;16.30;99.90;;;;;;5058345;28;20021;-75
2023/06/19 05:28:57;;;;;;;9.23;7.72;;;16.40;99.90;;;;;;5076472;28;20028;-74
2023/06/19 05:31:23;;;;;;;10.75;8.00;;;16.50;99.90;;;;;;5076202;28;20028;-74
2023/06/19 05:33:48;;;;;;;8.40;7.30;;;16.70;99.90;;;;;;5075778;28;20516;-75
2023/06/19 05:36:14;;;;;;;10.52;7.90;;;16.80;99.90;;;;;;5075626;28;20032;-74
2023/06/19 05:38:40;;;;;;;9.23;7.53;;;16.90;99.90;;;;;;5059039;28;20029;-74
2023/06/19 05:41:06;;;;;;;8.95;7.60;;;17.10;99.90;;;;;;5076187;28;20025;-74
2023/06/19 05:43:32;;;;;;;10.75;7.63;;;17.20;99.90;;;;;;5057951;28;20027;-73
2023/06/19 05:45:59;;;;;;;9.43;7.45;;;17.30;99.90;;;;;;5074371;28;20032;-73
2023/06/19 05:48:25;;;;;;;12.35;8.02;;;17.40;99.90;;;;;;5057943;28;20037;-74
2023/06/19 05:50:51;;;;;;;9.07;7.50;;;17.50;99.90;;;;;;5075801;28;20115;-74
2023/06/19 05:53:18;;;;;;;9.50;7.70;;;17.70;99.90;;;;;;5075511;28;20108;-74
2023/06/19 05:55:43;;;;;;;14.95;7.80;;;17.90;99.90;;;;;;5057814;28;20025;-74
2023/06/19 05:58:09;;;;;;;10.10;7.78;;;18.00;99.90;;;;;;5076037;28;20042;-74
2023/06/19 06:00:35;;;;;;;11.57;6.93;;;18.20;99.90;;;;;;5057705;28;20032;-73
2023/06/19 06:03:02;;;;;;;12.73;7.50;;;18.40;99.90;;;;;;5058037;28;20025;-73
2023/06/19 06:05:28;;;;;;;13.80;8.02;;;18.50;99.90;;;;;;5049540;28;20035;-74
2023/06/19 06:07:54;;;;;;;10.38;7.25;;;18.70;99.90;;;;;;5054463;28;20405;-73
2023/06/19 06:10:21;;;;;;;14.25;8.20;;;18.90;99.90;;;;;;5055407;28;20021;-73
2023/06/19 06:12:47;;;;;;;9.95;7.47;;;19.10;99.90;;;;;;5037511;28;20031;-73
2023/06/19 06:15:13;;;;;;;10.23;7.80;;;19.20;99.90;;;;;;5056305;28;20039;-73
2023/06/19 06:17:38;;;;;;;11.50;8.05;;;19.50;99.90;;;;;;5037266;28;20029;-73
2023/06/19 06:20:13;;;;;;;11.23;8.70;;;19.80;99.90;;;;;;5073141;28;20033;-73
2023/06/19 06:22:42;;;;;;;10.43;8.63;;;20.40;99.90;;;;;;5057466;28;20044;-73
2023/06/19 06:25:12;;;;;;;13.88;7.45;;;21.20;99.90;;;;;;5075207;28;20025;-73
2023/06/19 06:27:38;;;;;;;12.57;8.55;;;21.80;99.90;;;;;;5057002;28;20024;-73
2023/06/19 06:30:04;;;;;;;9.45;7.80;;;22.40;99.90;;;;;;5074946;28;20514;-71
2023/06/19 06:32:31;;;;;;;11.35;7.90;;;22.90;99.90;;;;;;5075101;28;20033;-72
2023/06/19 06:34:57;;;;;;;12.48;8.13;;;23.20;99.90;;;;;;5057375;28;20029;-73
2023/06/19 06:37:23;;;;;;;13.65;8.80;;;23.50;99.90;;;;;;5074617;28;20453;-73
2023/06/19 06:39:49;;;;;;;10.35;7.50;;;23.70;98.20;;;;;;5074506;28;20074;-74
2023/06/19 06:42:15;;;;;;;11.43;7.63;;;23.90;98.00;;;;;;5056863;28;20119;-74
2023/06/19 06:44:41;;;;;;;12.75;8.55;;;24.20;96.90;;;;;;5074815;28;20025;-74
2023/06/19 06:47:07;;;;;;;15.70;7.82;;;24.40;95.20;;;;;;5074447;28;20487;-73
2023/06/19 06:49:32;;;;;;;8.13;6.85;;;24.80;94.50;;;;;;5074490;28;20550;-74
2023/06/19 06:51:58;;;;;;;7.93;6.72;;;25.20;93.40;;;;;;5074520;28;20028;-74
2023/06/19 06:54:23;;;;;;;8.55;6.43;;;25.60;92.00;;;;;;5074565;28;20034;-74
2023/06/19 06:56:49;;;;;;;8.60;6.78;;;26.00;90.60;;;;;;5074304;28;20357;-74
2023/06/19 06:59:17;;;;;;;13.68;7.60;;;26.30;89.60;;;;;;5056687;28;20082;-74
2023/06/19 07:01:43;;;;;;;10.48;6.03;;;26.50;88.70;;;;;;5056487;28;20140;-74
2023/06/19 07:04:09;;;;;;;8.48;6.40;;;26.60;85.10;;;;;;5056699;28;20024;-74
2023/06/19 07:06:34;;;;;;;9.52;6.35;;;26.60;81.60;;;;;;5074391;28;20527;-74
2023/06/19 07:09:00;;;;;;;13.43;6.78;;;26.60;80.30;;;;;;5074353;28;20361;-74
2023/06/19 07:11:25;;;;;;;7.40;5.85;;;26.80;79.00;;;;;;5074230;28;20033;-74
2023/06/19 07:13:51;;;;;;;6.80;6.10;;;27.10;78.80;;;;;;5073818;28;20060;-74
2023/06/19 07:16:16;;;;;;;10.15;6.20;;;27.20;74.60;;;;;;5073974;28;20123;-74
2023/06/19 07:18:42;;;;;;;10.00;6.32;;;27.20;76.20;;;;;;5074467;28;20016;-74
2023/06/19 07:21:13;;;;;;;6.00;5.40;;;26.70;73.20;;;;;;5074162;28;20053;-74
2023/06/19 07:23:41;;;;;;;9.32;5.68;;;27.00;74.90;;;;;;5056420;28;20050;-74
2023/06/19 07:26:06;;;;;;;9.05;5.97;;;27.20;73.50;;;;;;5074069;28;20494;-74
2023/06/19 07:28:32;;;;;;;9.70;5.63;;;27.40;72.80;;;;;;5074073;28;20033;-74
2023/06/19 07:30:58;;;;;;;7.93;6.15;;;27.60;71.70;;;;;;5056109;28;20025;-74
2023/06/19 07:33:23;;;;;;;10.38;6.70;;;27.90;70.90;;;;;;5073918;28;20372;-74
2023/06/19 07:35:49;;;;;;;7.75;5.80;;;28.30;70.80;;;;;;5073895;28;20345;-74
2023/06/19 07:38:16;;;;;;;6.22;5.70;;;28.40;69.70;;;;;;5073821;28;20024;-74
2023/06/19 07:40:41;;;;;;;8.88;6.45;;;28.60;68.00;;;;;;5073800;28;20025;-74
2023/06/19 07:43:07;;;;;;;7.68;6.25;;;28.50;68.10;;;;;;5073753;28;20024;-74
2023/06/19 07:45:33;;;;;;;8.55;5.80;;;28.60;67.80;;;;;;5073765;28;20070;-74
2023/06/19 07:47:58;;;;;;;8.43;6.22;;;28.70;68.30;;;;;;5055928;28;20020;-74
2023/06/19 07:50:24;;;;;;;10.48;7.00;;;28.90;67.90;;;;;;5087647;28;20476;-73
2023/06/19 07:52:49;;;;;;;10.52;6.60;;;29.30;66.50;;;;;;5093830;28;20062;-74
2023/06/19 07:55:15;;;;;;;7.18;6.47;;;29.30;66.50;;;;;;5093921;28;20024;-74
2023/06/19 07:57:41;;;;;;;9.40;6.68;;;29.20;65.20;;;;;;5093382;28;20024;-73
2023/06/19 08:00:13;;;;;;;10.05;5.97;;;29.30;65.50;;;;;;5093879;28;20483;-74
2023/06/19 08:02:42;;;;;;;8.85;6.60;;;29.70;64.60;;;;;;5092331;28;20031;-74
2023/06/19 08:05:09;;;;;;;8.88;6.32;;;30.10;64.50;;;;;;5093752;28;20020;-74
2023/06/19 08:07:35;;;;;;;6.82;5.82;;;30.50;63.10;;;;;;5093958;28;20028;-74
2023/06/19 08:10:01;;;;;;;6.57;5.82;;;30.90;61.80;;;;;;5093963;28;20028;-75
2023/06/19 08:12:27;;;;;;;6.75;5.53;;;31.10;58.60;;;;;;5093761;28;20023;-74
2023/06/19 08:14:52;;;;;;;6.13;5.47;;;31.10;58.50;;;;;;5092449;28;20409;-74
2023/06/19 08:17:18;;;;;;;5.78;5.28;;;31.10;57.70;;;;;;5093336;28;20464;-74
2023/06/19 08:19:43;;;;;;;7.60;5.90;;;31.10;57.40;;;;;;5093698;28;20078;-74
2023/06/19 08:22:09;;;;;;;7.20;5.97;;;30.70;57.20;;;;;;5093303;28;20035;-74
2023/06/19 08:24:36;;;;;;;8.05;5.85;;;30.60;57.90;;;;;;5093282;28;20024;-74
2023/06/19 08:27:02;;;;;;;7.13;5.32;;;30.60;57.00;;;;;;5093673;28;20051;-69
2023/06/19 08:29:28;;;;;;;7.35;5.45;;;31.00;58.90;;;;;;5093723;28;20020;-69
2023/06/19 08:31:53;;;;;;;7.07;5.03;;;31.30;57.90;;;;;;5092009;28;20040;-70
2023/06/19 08:34:19;;;;;;;6.82;5.65;;;31.60;57.90;;;;;;5093281;28;20456;-70
2023/06/19 08:36:45;;;;;;;6.18;5.03;;;31.10;55.50;;;;;;5093573;28;20024;-70
2023/06/19 08:39:10;;;;;;;8.65;6.38;;;30.70;58.10;;;;;;5093320;28;20028;-70
2023/06/19 08:41:38;;;;;;;6.95;5.68;;;30.80;56.20;;;;;;5093644;28;20032;-70
2023/06/19 08:44:05;;;;;;;8.32;5.80;;;30.80;57.20;;;;;;5093214;28;20380;-70
2023/06/19 08:46:31;;;;;;;6.57;5.93;;;;;;;;;;5093226;28;20495;-70
2023/06/19 08:48:56;;;;;;;5.97;5.47;;;31.00;56.50;;;;;;5087860;28;20464;-70
2023/06/19 08:51:22;;;;;;;9.88;5.30;;;31.00;55.90;;;;;;5072893;28;20032;-70
2023/06/19 08:53:54;;;;;;;10.43;5.90;;;31.20;56.10;;;;;;5055233;28;20033;-70
2023/06/19 08:56:20;;;;;;;7.15;5.93;;;31.30;55.20;;;;;;5073114;28;20525;-70
2023/06/19 08:58:45;;;;;;;8.18;5.47;;;31.70;55.20;;;;;;5072755;28;20032;-70
2023/06/19 09:01:13;;;;;;;7.03;5.90;;;32.10;54.50;;;;;;5073199;28;20468;-70
2023/06/19 09:03:38;;;;;;;8.00;5.55;;;31.90;53.40;;;;;;5055038;28;20048;-70
2023/06/19 09:06:07;;;;;;;7.53;6.13;;;31.60;53.60;;;;;;5073346;28;20024;-70
2023/06/19 09:08:32;;;;;;;11.40;7.18;;;31.30;55.10;;;;;;5073656;28;20372;-70
2023/06/19 09:11:00;;;;;;;10.15;6.10;;;31.30;53.80;;;;;;5075447;28;20036;-70
2023/06/19 09:13:29;;;;;;;7.05;6.25;;;31.50;53.30;;;;;;5076637;28;20077;-70
2023/06/19 09:16:05;;;;;;;;;;;31.40;54.40;;;;;;5076896;28;20020;-70
2023/06/19 09:18:41;;;;;;;6.88;6.10;;;31.20;53.60;;;;;;5058554;28;19908;-70
2023/06/19 09:21:14;;;;;;;7.03;6.13;;;31.40;54.10;;;;;;5076386;28;20058;-70
2023/06/19 09:23:40;;;;;;;11.98;7.68;;;31.80;53.40;;;;;;5058676;28;20028;-70
2023/06/19 09:26:05;;;;;;;7.22;6.53;;;32.00;52.90;;;;;;5058902;28;20349;-70
2023/06/19 09:28:31;;;;;;;8.63;6.20;;;31.60;52.40;;;;;;5076315;28;20103;-69
2023/06/19 09:31:05;;;;;;;8.18;6.60;;;31.80;53.30;;;;;;5076163;28;20025;-70
2023/06/19 09:33:32;;;;;;;9.13;6.65;;;31.80;51.60;;;;;;5058617;28;20029;-69
2023/06/19 09:35:59;;;;;;;10.05;6.40;;;31.90;52.20;;;;;;5075991;28;20388;-69
2023/06/19 09:38:28;;;;;;;9.90;7.40;;;31.90;51.50;;;;;;5075891;28;20115;-70
2023/06/19 09:40:55;;;;;;;8.50;6.40;;;31.60;52.10;;;;;;5076143;28;20036;-70
2023/06/19 09:43:34;;;;;;;12.18;6.80;;;31.80;52.20;;;;;;5075845;28;20039;-70
2023/06/19 09:46:02;;;;;;;7.68;6.45;;;32.00;51.30;;;;;;5076041;28;20024;-70
2023/06/19 09:48:30;;;;;;;7.70;7.00;;;32.30;51.20;;;;;;5075900;28;20104;-70
2023/06/19 09:51:12;;;;;;;9.50;6.88;;;31.60;51.40;;;;;;5058350;28;20388;-69
2023/06/19 09:53:38;;;;;;;13.48;6.60;;;31.80;52.20;;;;;;5076147;28;20029;-69
2023/06/19 09:56:03;;;;;;;10.00;6.80;;;31.80;52.30;;;;;;5076438;28;20028;-69
2023/06/19 09:58:30;;;;;;;10.18;6.53;;;31.60;52.70;;;;;;5057932;28;20031;-69
2023/06/19 10:00:56;;;;;;;10.52;7.40;;;;;;;;;;5075781;28;20032;-69
2023/06/19 10:03:31;;;;;;;10.63;6.75;;;32.10;51.60;;;;;;5075335;28;20139;-69
2023/06/19 10:06:01;;;;;;;11.00;7.80;;;32.50;51.60;;;;;;5057678;28;20031;-69
2023/06/19 10:08:53;;;;;;;11.73;7.47;;;32.30;50.60;;;;;;5057926;28;20020;-70
2023/06/19 10:11:19;;;;;;;7.88;7.07;;;32.30;51.10;;;;;;5070864;28;20044;-70
2023/06/19 10:13:45;;;;;;;13.25;7.50;;;32.50;51.40;;;;;;5057406;28;20566;-69
2023/06/19 10:16:24;;;;;;;8.23;7.30;;;32.30;51.10;;;;;;5057610;28;20033;-69
2023/06/19 10:18:50;;;;;;;7.68;6.97;;;32.50;51.80;;;;;;5057385;28;20025;-69
2023/06/19 10:21:20;;;;;;;10.65;6.75;;;32.60;51.60;;;;;;5057525;28;20040;-70
2023/06/19 10:23:56;;;;;;;7.72;6.93;;;33.10;51.60;;;;;;5075243;28;20033;-69
2023/06/19 10:26:33;;;;;;;7.55;6.82;;;33.50;50.70;;;;;;5075194;28;20028;-69
2023/06/19 10:28:59;;;;;;;11.70;6.95;;;33.40;50.50;;;;;;5057335;28;20028;-69
2023/06/19 10:31:25;;;;;;;9.48;7.18;;;33.30;50.60;;;;;;5074832;28;20124;-69
2023/06/19 10:33:50;;;;;;;8.40;6.90;;;33.10;49.70;;;;;;5074981;28;20043;-69
2023/06/19 10:36:19;;;;;;;7.40;6.70;;;33.00;49.80;;;;;;5075332;28;20020;-70
2023/06/19 10:38:49;;;;;;;7.30;6.60;;;33.00;50.20;;;;;;5075222;28;20020;-70
2023/06/19 10:41:23;;;;;;;8.18;6.20;;;33.20;50.10;;;;;;5075028;28;20024;-70
2023/06/19 10:44:12;;;;;;;7.45;6.53;;;33.40;50.10;;;;;;5074913;28;20074;-70
2023/06/19 10:46:38;;;;;;;7.00;6.22;;;33.60;49.50;;;;;;5057056;28;20411;-71
2023/06/19 10:49:06;;;;;;;8.18;6.05;;;33.70;49.10;;;;;;5074247;28;20044;-70
2023/06/19 10:51:36;;;;;;;12.23;6.28;;;33.50;49.30;;;;;;5074635;28;20072;-70
2023/06/19 10:54:01;;;;;;;12.40;6.93;;;33.90;49.50;;;;;;5056685;28;20534;-70
2023/06/19 10:56:27;;;;;;;11.60;6.43;;;34.40;48.70;;;;;;5040075;28;20029;-70
2023/06/19 10:59:01;;;;;;;8.07;6.00;;;34.60;48.30;;;;;;5074575;28;20376;-70
2023/06/19 11:01:37;;;;;;;6.68;6.05;;;34.60;47.30;;;;;;5056673;28;20032;-71
2023/06/19 11:04:05;;;;;;;8.13;6.22;;;34.50;48.10;;;;;;5056625;28;20028;-71
2023/06/19 11:06:31;;;;;;;8.95;6.10;;;34.60;47.60;;;;;;5074506;28;20086;-71
2023/06/19 11:08:57;;;;;;;7.78;6.03;;;34.20;46.40;;;;;;5074204;28;20029;-70
2023/06/19 11:11:23;;;;;;;7.03;6.47;;;33.50;47.60;;;;;;5074054;28;20507;-70
2023/06/19 11:13:48;;;;;;;6.97;6.28;;;33.30;47.70;;;;;;5056545;28;20024;-70
2023/06/19 11:16:14;;;;;;;6.80;5.97;;;33.40;47.90;;;;;;5074363;28;20083;-71
2023/06/19 11:18:40;;;;;;;9.70;6.15;;;33.50;48.40;;;;;;5073977;28;20364;-71
2023/06/19 11:21:06;;;;;;;8.82;5.88;;;33.80;48.10;;;;;;5074279;28;20025;-71
2023/06/19 11:23:31;;;;;;;7.25;6.18;;;34.60;46.80;;;;;;5074205;28;20528;-71
2023/06/19 11:26:05;;;;;;;7.97;6.13;;;35.00;46.30;;;;;;5074149;28;20399;-71
2023/06/19 11:28:30;;;;;;;7.78;6.60;;;35.10;46.00;;;;;;5056240;28;20025;-71
2023/06/19 11:31:01;;;;;;;7.75;6.43;;;34.90;45.20;;;;;;5074024;28;20040;-71
2023/06/19 11:33:27;;;;;;;8.10;5.57;;;34.90;44.70;;;;;;5055344;28;20510;-71
2023/06/19 11:35:54;;;;;;;6.35;5.70;;;34.90;45.30;;;;;;5074069;28;20028;-71
2023/06/19 11:38:22;;;;;;;9.27;6.00;;;34.70;44.60;;;;;;5055976;28;20473;-70
2023/06/19 11:40:48;;;;;;;8.68;6.32;;;34.20;45.60;;;;;;5073963;28;20259;-70
2023/06/19 11:43:27;;;;;;;7.50;6.32;;;33.90;45.30;;;;;;5073899;28;20029;-70
2023/06/19 11:45:53;;;;;;;6.95;6.25;;;34.10;46.00;;;;;;5073892;28;20115;-73
2023/06/19 11:48:25;;;;;;;10.57;6.18;;;34.40;44.40;;;;;;5073229;28;20031;-73
2023/06/19 11:50:53;;;;;;;7.35;6.15;;;35.50;44.10;;;;;;5073782;28;20102;-74
2023/06/19 11:53:23;;;;;;;8.40;5.55;;;36.50;41.50;;;;;;5073403;28;20431;-74
2023/06/19 11:55:50;;;;;;;6.65;5.53;;;36.90;41.20;;;;;;5073985;28;20021;-74
2023/06/19 11:58:15;;;;;;;7.55;5.05;;;37.20;40.80;;;;;;5055667;28;20082;-74
2023/06/19 12:00:42;;;;;;;7.28;4.68;;;37.70;39.90;;;;;;5073955;28;20032;-74
2023/06/19 12:03:09;;;;;;;5.57;5.10;;;37.80;39.50;;;;;;5055628;28;20031;-74
2023/06/19 12:05:35;;;;;;;6.07;5.20;;;37.90;39.60;;;;;;5073591;28;20039;-73
2023/06/19 12:08:04;;;;;;;6.43;5.32;;;38.00;38.10;;;;;;5073589;28;20046;-74
2023/06/19 12:10:30;;;;;;;5.88;5.38;;;37.70;39.10;;;;;;5073496;28;20059;-74
2023/06/19 12:12:56;;;;;;;5.95;5.35;;;37.30;38.10;;;;;;5073626;28;20468;-74
2023/06/19 12:15:22;;;;;;;8.77;5.10;;;37.40;38.10;;;;;;5073531;28;20099;-75
2023/06/19 12:17:48;;;;;;;6.38;4.97;;;37.40;38.10;;;;;;5071231;28;20368;-75
2023/06/19 12:20:14;;;;;;;6.22;5.63;;;36.60;39.10;;;;;;5042828;28;20071;-75
2023/06/19 12:22:40;;;;;;;5.57;4.70;;;36.50;37.60;;;;;;5057386;28;20056;-75
2023/06/19 12:25:06;;;;;;;6.10;5.43;;;36.60;38.00;;;;;;5051113;28;20044;-76
2023/06/19 12:27:31;;;;;;;6.10;5.50;;;36.80;37.80;;;;;;5060118;28;20024;-77
2023/06/19 12:29:57;;;;;;;5.57;4.97;;;37.20;37.30;;;;;;5036455;28;20071;-77
2023/06/19 12:32:23;;;;;;;5.43;5.03;;;37.70;37.50;;;;;;5041503;28;20041;-76
2023/06/19 12:34:49;;;;;;;5.93;4.75;;;37.50;36.50;;;;;;5053368;28;20036;-77
2023/06/19 12:37:17;;;;;;;6.03;4.90;;;37.30;37.70;;;;;;5041355;28;20939;-76
2023/06/19 12:39:43;;;;;;;6.55;5.30;;;37.20;38.00;;;;;;5034525;28;20079;-74